createdAt,value
2017-12-30T00:00:18.544Z,79.10
2017-12-30T00:02:46.039Z,78.80
2017-12-30T00:05:14.359Z,78.70
2017-12-30T00:07:41.865Z,78.60
2017-12-30T00:10:10.147Z,78.30
2017-12-30T00:12:38.440Z,78.20
2017-12-30T00:15:05.963Z,78.10
2017-12-30T00:17:34.244Z,77.50
2017-12-30T00:20:02.549Z,77.60
2017-12-30T00:22:30.049Z,77.20
2017-12-30T00:24:57.539Z,77.20
2017-12-30T00:27:25.840Z,76.80
2017-12-30T00:29:53.346Z,76.80
2017-12-30T00:32:20.881Z,76.90
2017-12-30T00:34:49.220Z,76.50
2017-12-30T00:37:16.706Z,76.30
2017-12-30T00:39:44.232Z,76.00
2017-12-30T00:42:11.732Z,75.80
2017-12-30T00:44:39.273Z,75.50
2017-12-30T00:47:06.786Z,75.00
2017-12-30T00:49:35.097Z,74.90
2017-12-30T00:52:02.592Z,74.90
2017-12-30T00:54:30.113Z,75.10
2017-12-30T00:56:57.647Z,75.00
2017-12-30T00:59:25.903Z,74.70
2017-12-30T01:01:53.517Z,74.60
2017-12-30T01:04:21.032Z,73.80
2017-12-30T01:06:49.291Z,73.50
2017-12-30T01:09:16.806Z,73.40
2017-12-30T01:11:44.296Z,73.10
2017-12-30T01:14:11.788Z,72.70
2017-12-30T01:16:40.072Z,72.70
2017-12-30T01:19:07.559Z,72.70
2017-12-30T01:21:35.043Z,72.50
2017-12-30T01:24:02.600Z,72.70
2017-12-30T01:26:30.111Z,72.60
2017-12-30T01:28:57.612Z,72.70
2017-12-30T01:31:25.137Z,72.70
2017-12-30T01:33:52.660Z,72.70
2017-12-30T01:36:20.951Z,72.90
2017-12-30T01:38:48.454Z,72.90
2017-12-30T01:41:15.963Z,73.20
2017-12-30T01:43:43.460Z,74.10
2017-12-30T01:46:11.001Z,73.40
2017-12-30T01:51:40.727Z,74.30
2017-12-30T01:54:08.237Z,74.70
2017-12-30T01:56:35.759Z,74.90
2017-12-30T01:59:03.263Z,75.40
2017-12-30T02:01:31.564Z,75.00
2017-12-30T02:03:59.057Z,75.00
2017-12-30T02:06:26.624Z,75.00
2017-12-30T02:08:54.143Z,75.20
2017-12-30T02:11:21.632Z,75.50
2017-12-30T02:13:49.137Z,75.70
2017-12-30T02:16:16.642Z,75.70
2017-12-30T02:18:44.171Z,75.80
2017-12-30T02:21:11.671Z,76.00
2017-12-30T02:23:39.164Z,76.30
2017-12-30T02:26:07.455Z,76.50
2017-12-30T02:28:34.969Z,76.50
2017-12-30T02:31:02.457Z,77.60
2017-12-30T02:33:29.967Z,76.90
2017-12-30T02:35:57.451Z,76.70
2017-12-30T02:38:25.743Z,76.40
2017-12-30T02:40:54.017Z,75.90
2017-12-30T02:43:21.552Z,75.90
2017-12-30T02:45:49.028Z,76.10
2017-12-30T02:48:17.289Z,76.00
2017-12-30T02:50:44.816Z,75.90
2017-12-30T02:53:12.309Z,75.80
2017-12-30T02:55:40.936Z,75.90
2017-12-30T02:58:08.440Z,75.90
2017-12-30T03:00:35.927Z,76.00
2017-12-30T03:03:03.437Z,76.30
2017-12-30T03:05:30.976Z,76.10
2017-12-30T03:07:58.491Z,76.10
2017-12-30T03:10:26.747Z,76.20
2017-12-30T03:12:54.231Z,76.20
2017-12-30T03:15:21.731Z,76.20
2017-12-30T03:17:49.211Z,76.50
2017-12-30T03:20:16.722Z,76.30
2017-12-30T03:22:44.231Z,76.60
2017-12-30T03:25:11.744Z,76.60
2017-12-30T03:27:39.235Z,76.70
2017-12-30T03:30:06.728Z,76.80
2017-12-30T03:32:34.236Z,77.10
2017-12-30T03:35:01.727Z,77.20
2017-12-30T03:37:30.024Z,77.40
2017-12-30T03:39:57.516Z,77.40
2017-12-30T03:42:24.998Z,77.50
2017-12-30T03:44:52.573Z,78.40
2017-12-30T03:47:20.838Z,77.80
2017-12-30T03:49:48.328Z,77.80
2017-12-30T03:52:15.839Z,77.90
2017-12-30T03:54:43.363Z,77.90
2017-12-30T03:57:10.868Z,77.90
2017-12-30T03:59:38.358Z,78.00
2017-12-30T04:02:05.868Z,79.20
2017-12-30T04:04:33.369Z,78.30
2017-12-30T04:07:00.908Z,78.40
2017-12-30T04:09:29.178Z,79.20
2017-12-30T04:11:57.440Z,77.80
2017-12-30T04:14:24.943Z,78.40
2017-12-30T04:16:52.474Z,78.30
2017-12-30T04:19:20.765Z,78.30
2017-12-30T04:21:48.263Z,78.30
2017-12-30T04:24:15.756Z,78.30
2017-12-30T04:26:43.263Z,78.40
2017-12-30T04:29:10.750Z,78.50
2017-12-30T04:31:38.291Z,78.50
2017-12-30T04:34:05.785Z,78.40
2017-12-30T04:36:33.278Z,78.40
2017-12-30T04:39:00.800Z,78.50
2017-12-30T04:41:28.287Z,78.30
2017-12-30T04:43:55.811Z,78.20
2017-12-30T04:46:24.063Z,77.60
2017-12-30T04:48:51.557Z,78.20
2017-12-30T04:51:19.843Z,78.90
2017-12-30T04:53:47.335Z,78.10
2017-12-30T04:56:14.873Z,78.00
2017-12-30T04:58:42.375Z,78.00
2017-12-30T05:01:10.659Z,78.00
2017-12-30T05:03:38.164Z,78.00
2017-12-30T05:06:05.655Z,77.90
2017-12-30T05:08:33.210Z,78.00
2017-12-30T05:11:00.709Z,77.90
2017-12-30T05:13:28.986Z,78.20
2017-12-30T05:15:57.235Z,78.50
2017-12-30T05:18:24.769Z,78.50
2017-12-30T05:20:52.263Z,78.60
2017-12-30T05:23:20.531Z,79.20
2017-12-30T05:25:48.111Z,78.60
2017-12-30T05:28:16.355Z,78.60
2017-12-30T05:30:43.873Z,78.50
2017-12-30T05:33:11.355Z,78.10
2017-12-30T05:35:38.843Z,77.50
2017-12-30T05:38:06.359Z,77.70
2017-12-30T05:40:33.846Z,77.40
2017-12-30T05:43:01.372Z,77.20
2017-12-30T05:45:28.861Z,77.10
2017-12-30T05:47:56.364Z,77.00
2017-12-30T05:50:23.870Z,77.30
2017-12-30T05:52:51.374Z,76.00
2017-12-30T05:55:18.918Z,75.90
2017-12-30T05:57:47.199Z,75.60
2017-12-30T06:00:14.721Z,75.60
2017-12-30T06:02:42.220Z,76.00
2017-12-30T06:05:09.715Z,76.10
2017-12-30T06:07:37.232Z,76.50
2017-12-30T06:10:04.715Z,76.80
2017-12-30T06:12:32.222Z,77.20
2017-12-30T06:15:00.487Z,77.60
2017-12-30T06:17:27.998Z,77.60
2017-12-30T06:19:55.519Z,77.80
2017-12-30T06:22:23.775Z,78.20
2017-12-30T06:24:51.279Z,78.10
2017-12-30T06:27:18.767Z,78.20
2017-12-30T06:29:46.243Z,78.30
2017-12-30T06:32:14.020Z,78.20
2017-12-30T06:34:41.504Z,78.20
2017-12-30T06:37:09.007Z,78.50
2017-12-30T06:39:36.516Z,79.00
2017-12-30T06:42:04.006Z,79.10
2017-12-30T06:44:31.493Z,79.70
2017-12-30T06:46:59.026Z,80.20
2017-12-30T06:49:26.541Z,80.40
2017-12-30T06:51:54.043Z,80.50
2017-12-30T06:54:21.563Z,80.50
2017-12-30T06:56:49.050Z,80.90
2017-12-30T06:59:16.566Z,80.80
2017-12-30T07:01:44.051Z,81.20
2017-12-30T07:04:11.570Z,81.50
2017-12-30T07:06:39.820Z,82.10
2017-12-30T07:09:07.330Z,82.10
2017-12-30T07:11:34.847Z,82.50
2017-12-30T07:14:03.133Z,82.70
2017-12-30T07:16:31.399Z,83.00
2017-12-30T07:18:58.956Z,82.90
2017-12-30T07:21:26.447Z,83.20
2017-12-30T07:23:53.951Z,83.20
2017-12-30T07:26:21.479Z,83.60
2017-12-30T07:28:48.971Z,83.30
2017-12-30T07:31:16.492Z,83.50
2017-12-30T07:33:43.986Z,83.90
2017-12-30T07:36:11.481Z,83.90
2017-12-30T07:38:39.773Z,84.00
2017-12-30T07:41:07.264Z,84.00
2017-12-30T07:43:34.780Z,83.80
2017-12-30T07:46:02.266Z,83.70
2017-12-30T07:48:29.813Z,84.30
2017-12-30T07:50:57.323Z,83.80
2017-12-30T07:53:25.575Z,84.40
2017-12-30T07:55:53.115Z,84.30
2017-12-30T07:58:20.599Z,84.40
2017-12-30T08:00:48.115Z,84.70
2017-12-30T08:03:15.620Z,85.00
2017-12-30T08:05:43.155Z,85.20
2017-12-30T08:08:10.647Z,85.40
2017-12-30T08:10:38.917Z,85.90
2017-12-30T08:13:07.226Z,86.20
2017-12-30T08:15:34.711Z,87.00
2017-12-30T08:18:02.195Z,86.50
2017-12-30T08:20:29.714Z,86.80
2017-12-30T08:22:57.247Z,87.30
2017-12-30T08:25:24.755Z,87.50
2017-12-30T08:27:52.247Z,87.70
2017-12-30T08:30:20.554Z,88.20
2017-12-30T08:32:48.046Z,88.10
2017-12-30T08:35:15.533Z,89.60
2017-12-30T08:37:43.822Z,89.10
2017-12-30T08:40:12.068Z,88.90
2017-12-30T08:42:39.580Z,88.90
2017-12-30T08:45:07.092Z,89.70
2017-12-30T08:47:35.339Z,89.00
2017-12-30T08:50:02.880Z,88.80
2017-12-30T08:52:30.396Z,89.10
2017-12-30T08:54:58.725Z,89.60
2017-12-30T08:57:26.228Z,89.50
2017-12-30T08:59:53.777Z,89.00
2017-12-30T09:02:21.281Z,89.20
2017-12-30T09:04:48.793Z,89.30
2017-12-30T09:07:17.075Z,89.00
2017-12-30T09:09:45.340Z,89.30
2017-12-30T09:12:12.898Z,89.20
2017-12-30T09:14:41.147Z,89.90
2017-12-30T09:17:08.649Z,89.10
2017-12-30T09:19:36.190Z,88.80
2017-12-30T09:22:04.452Z,88.40
2017-12-30T09:24:32.027Z,88.20
2017-12-30T09:27:00.291Z,88.30
2017-12-30T09:29:27.779Z,88.20
2017-12-30T09:31:55.312Z,87.90
2017-12-30T09:34:23.566Z,88.80
2017-12-30T09:36:51.092Z,88.20
2017-12-30T09:39:18.580Z,88.00
2017-12-30T09:41:46.100Z,87.50
2017-12-30T09:44:13.637Z,87.50
2017-12-30T09:46:41.913Z,87.40
2017-12-30T09:49:09.423Z,87.40
2017-12-30T09:51:36.931Z,87.00
2017-12-30T09:54:04.460Z,86.50
2017-12-30T09:56:32.726Z,85.50
2017-12-30T09:59:00.247Z,86.20
2017-12-30T10:01:27.763Z,85.70
2017-12-30T10:03:56.168Z,84.50
2017-12-30T10:06:23.719Z,84.50
2017-12-30T10:08:51.235Z,84.80
2017-12-30T10:11:18.871Z,85.00
2017-12-30T10:13:46.477Z,85.00
2017-12-30T10:16:14.735Z,84.90
2017-12-30T10:18:42.252Z,84.90
2017-12-30T10:21:09.748Z,85.00
2017-12-30T10:23:37.273Z,85.00
2017-12-30T10:26:04.852Z,84.70
2017-12-30T10:28:32.400Z,85.00
2017-12-30T10:30:59.927Z,84.70
2017-12-30T10:33:27.419Z,85.20
2017-12-30T10:35:54.944Z,85.20
2017-12-30T10:38:22.480Z,85.10
2017-12-30T10:40:49.979Z,85.10
2017-12-30T10:43:17.549Z,85.10
2017-12-30T10:45:45.055Z,85.20
2017-12-30T10:48:12.574Z,84.80
2017-12-30T10:50:40.092Z,85.10
2017-12-30T10:53:07.626Z,85.10
2017-12-30T10:55:35.127Z,84.80
2017-12-30T10:58:02.691Z,84.40
2017-12-30T11:00:35.984Z,84.30
2017-12-30T11:03:03.527Z,84.20
2017-12-30T11:05:31.031Z,83.70
2017-12-30T11:07:59.336Z,84.20
2017-12-30T11:10:26.835Z,83.90
2017-12-30T11:12:54.347Z,83.90
2017-12-30T11:15:21.840Z,83.70
2017-12-30T11:17:49.355Z,83.90
2017-12-30T11:20:16.863Z,83.90
2017-12-30T11:22:44.372Z,83.80
2017-12-30T11:25:11.900Z,84.00
2017-12-30T11:27:39.417Z,84.10
2017-12-30T11:30:06.907Z,84.20
2017-12-30T11:32:34.416Z,84.10
2017-12-30T11:35:01.916Z,84.20
2017-12-30T11:37:29.517Z,84.10
2017-12-30T11:39:57.044Z,84.10
2017-12-30T11:42:24.553Z,84.10
2017-12-30T11:44:52.059Z,84.30
2017-12-30T11:47:19.588Z,84.10
2017-12-30T11:49:47.088Z,85.20
2017-12-30T11:52:15.350Z,84.20
2017-12-30T11:54:42.902Z,84.20
2017-12-30T11:57:11.279Z,84.60
2017-12-30T11:59:38.828Z,84.80
2017-12-30T12:02:06.330Z,84.90
2017-12-30T12:04:33.860Z,85.30
2017-12-30T12:07:02.179Z,86.10
2017-12-30T12:09:29.682Z,85.30
2017-12-30T12:11:57.225Z,85.40
2017-12-30T12:14:24.717Z,85.60
2017-12-30T12:16:52.271Z,85.90
2017-12-30T12:19:20.542Z,86.10
2017-12-30T12:21:48.047Z,86.10
2017-12-30T12:24:15.572Z,86.40
2017-12-30T12:26:43.859Z,86.20
2017-12-30T12:29:12.128Z,85.90
2017-12-30T12:31:40.425Z,86.00
2017-12-30T12:34:07.931Z,85.90
2017-12-30T12:36:35.499Z,85.90
2017-12-30T12:39:02.995Z,85.90
2017-12-30T12:41:30.490Z,85.90
2017-12-30T12:43:58.133Z,86.00
2017-12-30T12:46:25.654Z,86.00
2017-12-30T12:48:53.934Z,86.40
2017-12-30T12:51:21.428Z,86.30
2017-12-30T12:53:48.952Z,86.60
2017-12-30T12:56:16.519Z,86.90
2017-12-30T12:58:44.206Z,87.20
2017-12-30T13:01:11.779Z,87.20
2017-12-30T13:03:39.275Z,87.90
2017-12-30T13:06:07.557Z,88.50
2017-12-30T13:08:35.824Z,88.40
2017-12-30T13:11:04.106Z,88.50
2017-12-30T13:13:32.409Z,88.30
2017-12-30T13:15:59.924Z,88.10
2017-12-30T13:18:28.235Z,88.20
2017-12-30T13:20:55.736Z,88.20
2017-12-30T13:23:23.260Z,88.10
2017-12-30T13:25:50.792Z,88.30
2017-12-30T13:28:18.303Z,88.50
2017-12-30T13:30:45.821Z,88.60
2017-12-30T13:33:13.339Z,88.60
2017-12-30T13:35:41.079Z,88.90
2017-12-30T13:38:08.600Z,89.00
2017-12-30T13:40:36.120Z,88.80
2017-12-30T13:43:04.415Z,88.90
2017-12-30T13:45:32.674Z,88.70
2017-12-30T13:48:00.950Z,88.50
2017-12-30T13:50:29.227Z,88.60
2017-12-30T13:52:57.491Z,88.50
2017-12-30T13:55:24.988Z,88.50
2017-12-30T13:57:52.512Z,89.60
2017-12-30T14:00:20.795Z,89.00
2017-12-30T14:02:49.108Z,89.00
2017-12-30T14:05:16.591Z,88.90
2017-12-30T14:07:44.117Z,89.20
2017-12-30T14:10:11.635Z,89.10
2017-12-30T14:12:39.939Z,89.30
2017-12-30T14:15:07.451Z,89.30
2017-12-30T14:17:34.985Z,89.50
2017-12-30T14:20:02.504Z,89.60
2017-12-30T14:22:30.047Z,89.60
2017-12-30T14:24:58.304Z,89.80
2017-12-30T14:27:25.820Z,89.70
2017-12-30T14:29:54.150Z,89.60
2017-12-30T14:32:22.412Z,90.00
2017-12-30T14:34:49.959Z,89.90
2017-12-30T14:37:17.508Z,90.00
2017-12-30T14:39:45.058Z,90.20
2017-12-30T14:42:12.745Z,90.20
2017-12-30T14:44:40.248Z,90.20
2017-12-30T14:47:07.768Z,90.30
2017-12-30T14:49:35.255Z,90.30
2017-12-30T14:52:02.802Z,90.30
2017-12-30T14:54:31.075Z,90.40
2017-12-30T14:56:59.339Z,90.50
2017-12-30T14:59:26.865Z,90.50
2017-12-30T15:01:54.465Z,91.20
2017-12-30T15:04:22.753Z,91.30
2017-12-30T15:06:50.251Z,91.30
2017-12-30T15:09:17.764Z,91.20
2017-12-30T15:11:46.011Z,91.10
2017-12-30T15:14:13.518Z,91.10
2017-12-30T15:16:41.044Z,91.10
2017-12-30T15:19:09.316Z,91.00
2017-12-30T15:21:37.625Z,91.00
2017-12-30T15:24:05.133Z,91.00
2017-12-30T15:26:32.688Z,90.90
2017-12-30T15:29:00.227Z,90.90
2017-12-30T15:31:27.749Z,90.80
2017-12-30T15:33:55.286Z,90.80
2017-12-30T15:36:23.636Z,90.70
2017-12-30T15:38:51.127Z,90.70
2017-12-30T15:41:19.429Z,90.80
2017-12-30T15:43:46.940Z,90.80
2017-12-30T15:46:14.511Z,90.90
2017-12-30T15:48:42.764Z,90.90
2017-12-30T15:51:11.056Z,90.80
2017-12-30T15:53:38.602Z,90.80
2017-12-30T15:56:06.118Z,90.90
2017-12-30T15:58:33.680Z,90.80
2017-12-30T16:01:01.195Z,90.90
2017-12-30T16:03:29.489Z,90.90
2017-12-30T16:05:57.791Z,90.90
2017-12-30T16:08:25.292Z,90.90
2017-12-30T16:10:52.803Z,90.80
2017-12-30T16:13:20.300Z,90.80
2017-12-30T16:15:49.352Z,92.30
2017-12-30T16:18:16.850Z,92.30
2017-12-30T16:20:45.864Z,92.30
2017-12-30T16:23:14.163Z,91.80
2017-12-30T16:25:42.340Z,91.80
2017-12-30T16:28:09.848Z,91.50
2017-12-30T16:30:37.367Z,91.10
2017-12-30T16:33:04.899Z,90.50
2017-12-30T16:35:32.425Z,88.50
2017-12-30T16:37:59.936Z,87.90
2017-12-30T16:40:27.468Z,87.70
2017-12-30T16:42:54.987Z,87.60
2017-12-30T16:45:22.519Z,87.50
2017-12-30T16:47:50.026Z,87.80
2017-12-30T16:50:18.295Z,88.50
2017-12-30T16:52:45.808Z,88.50
2017-12-30T16:55:13.338Z,88.50
2017-12-30T16:57:40.875Z,88.40
2017-12-30T17:00:09.156Z,88.70
2017-12-30T17:02:37.463Z,88.70
2017-12-30T17:05:04.993Z,88.70
2017-12-30T17:07:33.259Z,88.90
2017-12-30T17:10:01.576Z,88.80
2017-12-30T17:12:29.147Z,88.80
2017-12-30T17:14:56.650Z,88.90
2017-12-30T17:17:24.932Z,89.00
2017-12-30T17:19:53.205Z,88.80
2017-12-30T17:22:21.523Z,88.80
2017-12-30T17:24:49.036Z,88.80
2017-12-30T17:27:16.541Z,88.60
2017-12-30T17:29:44.067Z,88.70
2017-12-30T17:32:11.589Z,88.50
2017-12-30T17:34:39.112Z,88.30
2017-12-30T17:37:06.604Z,88.10
2017-12-30T17:39:34.124Z,87.90
2017-12-30T17:42:01.734Z,87.80
2017-12-30T17:44:29.236Z,87.80
2017-12-30T17:46:56.756Z,87.50
2017-12-30T17:49:25.036Z,87.20
2017-12-30T17:51:53.341Z,87.10
2017-12-30T17:54:20.891Z,86.90
2017-12-30T17:56:48.412Z,87.20
2017-12-30T17:59:15.969Z,87.40
2017-12-30T18:01:43.463Z,86.90
2017-12-30T18:04:10.977Z,86.80
2017-12-30T18:06:38.556Z,86.80
2017-12-30T18:09:06.868Z,87.00
2017-12-30T18:11:34.413Z,87.00
2017-12-30T18:14:01.917Z,87.10
2017-12-30T18:16:29.433Z,87.00
2017-12-30T18:18:56.972Z,87.70
2017-12-30T18:21:25.632Z,86.90
2017-12-30T18:23:53.132Z,86.90
2017-12-30T18:26:20.646Z,86.80
2017-12-30T18:28:48.176Z,86.80
2017-12-30T18:31:15.680Z,86.80
2017-12-30T18:33:43.975Z,87.10
2017-12-30T18:36:11.532Z,87.10
2017-12-30T18:38:39.039Z,87.40
2017-12-30T18:41:06.581Z,87.20
2017-12-30T18:43:34.120Z,87.30
2017-12-30T18:46:01.639Z,87.40
2017-12-30T18:48:29.939Z,87.60
2017-12-30T18:50:57.459Z,87.60
2017-12-30T18:53:24.988Z,88.10
2017-12-30T18:55:52.520Z,88.30
2017-12-30T18:58:20.028Z,88.30
2017-12-30T19:00:47.556Z,88.70
2017-12-30T19:03:15.096Z,88.90
2017-12-30T19:05:42.623Z,89.00
2017-12-30T19:08:10.889Z,89.30
2017-12-30T19:10:38.408Z,89.30
2017-12-30T19:13:05.913Z,90.10
2017-12-30T19:15:33.420Z,90.10
2017-12-30T19:18:00.947Z,90.10
2017-12-30T19:20:28.524Z,90.60
2017-12-30T19:22:56.046Z,90.60
2017-12-30T19:25:24.350Z,90.70
2017-12-30T19:27:52.010Z,90.70
2017-12-30T19:30:19.545Z,90.80
2017-12-30T19:32:47.835Z,90.90
2017-12-30T19:35:15.354Z,90.90
2017-12-30T19:37:42.852Z,90.90
2017-12-30T19:40:10.405Z,91.40
2017-12-30T19:42:37.958Z,91.10
2017-12-30T19:45:05.493Z,91.10
2017-12-30T19:47:33.800Z,91.60
2017-12-30T19:50:01.332Z,91.40
2017-12-30T19:52:29.607Z,91.70
2017-12-30T19:54:57.927Z,92.00
2017-12-30T19:57:25.464Z,91.90
2017-12-30T19:59:52.997Z,92.00
2017-12-30T20:02:21.298Z,92.30
2017-12-30T20:04:48.794Z,92.30
2017-12-30T20:07:16.349Z,92.50
2017-12-30T20:09:43.860Z,92.60
2017-12-30T20:12:12.146Z,92.70
2017-12-30T20:14:39.667Z,92.70
2017-12-30T20:17:07.159Z,92.70
2017-12-30T20:19:34.707Z,92.80
2017-12-30T20:22:02.997Z,93.20
2017-12-30T20:24:30.536Z,93.20
2017-12-30T20:26:58.946Z,93.20
2017-12-30T20:29:26.497Z,93.20
2017-12-30T20:31:54.036Z,93.30
2017-12-30T20:34:22.316Z,93.50
2017-12-30T20:36:50.700Z,93.70
2017-12-30T20:39:18.205Z,93.70
2017-12-30T20:41:45.726Z,93.60
2017-12-30T20:44:13.272Z,94.20
2017-12-30T20:46:40.792Z,93.90
2017-12-30T20:49:08.362Z,93.70
2017-12-30T20:51:36.681Z,93.90
2017-12-30T20:54:04.257Z,93.80
2017-12-30T20:56:31.809Z,93.80
2017-12-30T20:58:59.380Z,93.90
2017-12-30T21:01:26.921Z,93.80
2017-12-30T21:03:54.473Z,93.90
2017-12-30T21:06:22.020Z,93.90
2017-12-30T21:08:49.538Z,94.20
2017-12-30T21:11:17.094Z,94.10
2017-12-30T21:13:44.641Z,94.10
2017-12-30T21:16:12.152Z,94.00
2017-12-30T21:18:39.725Z,94.00
2017-12-30T21:21:07.288Z,94.10
2017-12-30T21:23:34.833Z,94.00
2017-12-30T21:26:02.381Z,94.10
2017-12-30T21:28:29.921Z,94.00
2017-12-30T21:30:58.208Z,94.10
2017-12-30T21:33:25.745Z,94.10
2017-12-30T21:35:54.049Z,94.00
2017-12-30T21:38:21.567Z,94.00
2017-12-30T21:40:49.098Z,94.10
2017-12-30T21:43:16.651Z,94.20
2017-12-30T21:45:44.185Z,94.30
2017-12-30T21:48:11.719Z,94.40
2017-12-30T21:50:40.034Z,94.40
2017-12-30T21:53:07.545Z,94.40
2017-12-30T21:55:35.854Z,94.50
2017-12-30T21:58:03.366Z,94.30
2017-12-30T22:00:30.868Z,94.40
2017-12-30T22:02:58.403Z,94.40
2017-12-30T22:05:26.673Z,94.30
2017-12-30T22:07:54.981Z,94.30
2017-12-30T22:10:22.518Z,94.30
2017-12-30T22:12:50.796Z,94.20
2017-12-30T22:15:19.109Z,94.20
2017-12-30T22:17:46.609Z,94.20
2017-12-30T22:20:14.288Z,94.30
2017-12-30T22:22:42.573Z,94.30
2017-12-30T22:25:10.120Z,94.30
2017-12-30T22:27:38.417Z,94.20
2017-12-30T22:30:05.968Z,94.20
2017-12-30T22:32:34.235Z,94.10
2017-12-30T22:35:01.784Z,94.10
2017-12-30T22:37:30.094Z,94.00
2017-12-30T22:39:57.653Z,93.90
2017-12-30T22:42:25.144Z,93.90
2017-12-30T22:44:52.667Z,93.80
2017-12-30T22:47:20.183Z,93.80
2017-12-30T22:49:48.478Z,93.80
2017-12-30T22:52:16.037Z,94.10
2017-12-30T22:54:43.550Z,93.70
2017-12-30T22:57:11.107Z,93.60
2017-12-30T22:59:38.633Z,93.60
2017-12-30T23:02:06.179Z,93.50
2017-12-30T23:04:33.684Z,93.40
2017-12-30T23:07:01.195Z,93.30
2017-12-30T23:09:28.719Z,93.20
2017-12-30T23:11:57.007Z,93.30
2017-12-30T23:14:25.296Z,93.00
2017-12-30T23:16:52.811Z,93.00
2017-12-30T23:19:20.336Z,92.90
2017-12-30T23:21:47.839Z,92.80
2017-12-30T23:24:15.370Z,92.70
2017-12-30T23:26:42.914Z,92.70
2017-12-30T23:29:10.415Z,92.60
2017-12-30T23:31:37.954Z,92.50
2017-12-30T23:34:05.449Z,92.90
2017-12-30T23:36:33.742Z,92.50
2017-12-30T23:39:01.246Z,92.50
2017-12-30T23:41:28.756Z,92.50
2017-12-30T23:43:56.287Z,92.50
2017-12-30T23:46:24.551Z,92.50
2017-12-30T23:48:52.811Z,92.90
2017-12-30T23:51:20.423Z,92.40
2017-12-30T23:53:47.928Z,92.40
2017-12-30T23:56:15.468Z,92.40
2017-12-30T23:58:42.967Z,92.40
